Estació municipal de Folgueroles (Osona, E.N. Guilleries-Savassona)

Consulta les dades en temps real de l'estació municipal de Folgueroles





Hora UTC 18:25
Temperatura 23.7 ºC
Humitat 68.1 %
Pressió 1020.0 hPa
Pluja 0.0 mm
Velocitat vent 4.8 km/h
Direcció vent S
Radiació solar 2.5 W/m²

Dades diàries 2026-09-01



Hora UTC (hivern +1h; estiu +2h)
Temperatura (ºC) Humitat (%) Pressió (hPa) Velocitat vent (km/h) Precipitació (mm) Radiació solar (W/m²)
Hora UTC Aire Humitat Pressió Vel. Dir. Vel. Max Dir. Intent. màx 5 min. Rad. Sol.
00:05 19.5 85.3 1022.6 4.7 E 4.7 E 0.0 0.1
00:10 19.5 85.1 1022.6 5.5 E 6.7 E 0.0 0.1
00:15 19.3 85.4 1022.6 4.9 E 7.1 E 0.0 0.1
00:20 19.3 85.8 1022.6 4.6 E 6.0 E 0.0 0.1
00:25 19.3 86.2 1022.5 3.8 E 5.3 ESE 0.0 0.1
00:30 19.2 86.5 1022.5 3.6 E 5.6 E 0.0 0.1
00:35 19.2 86.3 1022.4 3.3 E 5.3 ENE 0.0 0.1
00:40 19.3 86.2 1022.4 4.0 E 5.6 E 0.0 0.2
00:45 19.3 86.2 1022.4 4.0 E 5.6 E 0.0 0.1
00:50 19.3 85.7 1022.4 4.6 E 6.4 E 0.0 0.1
00:55 19.3 85.5 1022.4 5.0 E 7.1 E 0.0 0.2
01:00 19.4 85.3 1022.4 4.1 E 6.7 ENE 0.0 0.1
01:05 19.5 85.3 1022.4 4.1 E 5.6 E 0.0 0.1
01:10 19.7 84.5 1022.4 4.2 E 6.4 E 0.0 0.1
01:15 19.8 84.2 1022.4 3.6 E 6.4 E 0.0 0.1
01:20 19.9 83.8 1022.4 3.1 E 5.6 ENE 0.0 0.1
01:25 20.0 83.6 1022.4 3.0 E 4.6 E 0.0 0.1
01:30 19.9 83.8 1022.4 3.1 E 4.6 E 0.0 0.1
01:35 19.9 83.7 1022.4 1.8 E 3.9 E 0.0 0.0
01:40 20.0 83.9 1022.4 2.6 E 3.5 E 0.0 0.1
01:45 20.0 84.1 1022.4 2.1 E 3.9 E 0.0 0.1
01:50 20.0 84.2 1022.4 1.4 E 3.2 E 0.0 0.1
01:55 19.9 84.1 1022.3 2.8 E 4.2 E 0.0 0.1
02:00 19.8 84.2 1022.3 1.0 E 3.2 ENE 0.0 0.1
02:05 19.9 84.4 1022.3 0.7 SSE 3.2 SSW 0.0 0.1
02:10 20.0 84.3 1022.3 1.5 S 3.9 S 0.0 0.1
02:15 20.2 84.3 1022.4 0.7 S 3.2 S 0.0 0.1
02:20 20.3 83.8 1022.4 1.0 SSE 2.5 SSE 0.0 0.1
02:25 20.4 83.6 1022.2 1.0 SSE 2.5 S 0.0 0.1
02:30 20.4 83.2 1022.2 1.6 ESE 2.8 ESE 0.0 0.1
02:35 20.3 82.8 1022.2 2.6 ESE 3.9 ESE 0.0 0.0
02:40 20.2 83.2 1022.2 1.0 ENE 2.5 E 0.0 0.0
02:45 20.2 83.4 1022.1 0.2 ENE 1.8 ENE 0.0 0.1
02:50 20.2 83.6 1022.1 0.0 NNE 0.0 ENE 0.0 0.1
02:55 20.2 84.1 1022.0 0.0 NNE 0.0 ESE 0.0 0.0
03:00 20.2 83.9 1022.0 0.0 SE 1.1 SE 0.0 0.1
03:05 20.2 83.6 1022.0 0.3 SE 1.8 SE 0.0 0.1
03:10 20.3 83.5 1022.0 0.4 ESE 1.8 SE 0.0 0.0
03:15 20.3 83.4 1021.9 0.4 E 2.1 E 0.0 0.0
03:20 20.3 82.9 1021.9 1.6 E 2.1 E 0.0 0.1
03:25 20.4 82.9 1021.8 2.3 E 3.2 E 0.0 0.0
03:30 20.4 82.8 1021.8 2.2 E 3.2 E 0.0 0.1
03:35 20.4 83.1 1021.8 0.3 E 2.1 ESE 0.0 0.1
03:40 20.5 83.2 1021.8 0.0 E 1.1 E 0.0 0.0
03:45 20.5 83.5 1021.7 1.2 NW 2.8 NNW 0.0 0.1
03:50 20.5 83.7 1021.7 1.3 NW 2.5 NNW 0.0 0.1
03:55 20.4 84.1 1021.6 0.0 WNW 1.1 WNW 0.0 0.1
04:00 20.4 84.5 1021.6 1.2 WNW 2.1 NW 0.0 0.1
04:05 20.4 85.1 1021.6 0.5 NW 2.5 WNW 0.0 0.1
04:10 20.4 85.3 1021.6 0.8 NW 1.8 NW 0.0 0.1
04:15 20.3 85.5 1021.5 0.2 NW 1.4 WNW 0.0 0.1
04:20 20.3 85.6 1021.5 0.7 ESE 3.5 SE 0.0 0.1
04:25 20.1 85.0 1021.5 1.8 ESE 2.8 ESE 0.0 0.1
04:30 20.0 84.9 1021.5 3.2 E 4.2 E 0.0 0.1
04:35 20.0 85.3 1021.5 2.6 E 3.5 E 0.0 0.1
04:40 19.9 85.6 1021.5 1.9 E 2.5 E 0.0 0.1
04:45 19.9 85.8 1021.5 2.1 ESE 3.5 ESE 0.0 0.2
04:50 19.9 86.0 1021.5 2.6 ESE 3.9 E 0.0 0.2
04:55 19.7 86.3 1021.5 3.1 E 4.2 E 0.0 0.3
05:00 19.7 87.1 1021.5 3.3 E 4.6 E 0.0 0.5
05:05 19.6 87.2 1021.5 2.6 E 4.2 ENE 0.0 1.0
05:10 19.6 87.3 1021.5 2.7 E 3.9 E 0.0 1.7
05:15 19.7 87.3 1021.5 2.9 E 3.9 E 0.0 2.9
05:20 19.6 87.4 1021.5 3.9 E 6.7 E 0.0 4.4
05:25 19.5 87.5 1021.5 3.9 E 6.4 E 0.0 6.9
05:30 19.5 87.5 1021.5 3.9 E 5.3 ESE 0.0 11.8
05:35 19.4 87.7 1021.6 3.1 E 4.6 E 0.0 16.9
05:40 19.5 87.8 1021.6 3.6 E 5.3 E 0.0 22.4
05:45 19.5 87.9 1021.7 3.1 E 5.3 ESE 0.0 25.5
05:50 19.5 87.8 1021.7 2.9 E 4.9 ESE 0.0 31.1
05:55 19.5 88.2 1021.7 3.6 E 5.6 ESE 0.0 38.3
06:00 19.5 88.5 1021.7 4.0 E 5.6 E 0.0 40.0
06:05 19.5 88.5 1021.7 3.0 E 4.2 E 0.0 35.9
06:10 19.6 88.2 1021.7 3.6 E 6.0 E 0.0 38.2
06:15 19.5 88.0 1021.7 2.5 ESE 4.9 E 0.0 41.6
06:20 19.6 88.0 1021.7 1.7 E 3.2 E 0.0 46.0
06:25 19.7 87.7 1021.8 0.6 ESE 2.1 ESE 0.0 49.6
06:30 19.8 87.7 1021.8 0.0 NNE 0.0 E 0.0 62.0
06:35 19.9 87.5 1021.8 0.0 NNE 0.0 SE 0.0 136.5
06:40 20.0 87.2 1021.8 0.0 NNE 0.0 NNE 0.0 144.2
06:45 20.1 86.9 1021.9 0.0 WNW 1.1 WNW 0.0 157.8
06:50 20.4 85.7 1021.9 0.0 NNE 0.0 NW 0.0 124.0
06:55 20.5 84.9 1022.0 0.0 NNE 0.0 WNW 0.0 197.9
07:00 20.7 84.2 1022.0 1.8 S 3.9 SSW 0.0 219.1
07:05 20.8 83.7 1022.0 0.2 WSW 1.8 WSW 0.0 236.7
07:10 21.3 81.9 1022.0 0.6 ESE 2.1 ESE 0.0 256.4
07:15 21.7 79.2 1022.0 0.1 ENE 1.4 E 0.0 270.3
07:20 21.9 78.1 1022.0 0.5 NE 2.1 NE 0.0 289.1
07:25 21.8 78.2 1022.0 0.8 NNW 3.2 SE 0.0 231.4
07:30 21.8 78.3 1022.0 3.8 E 7.4 ENE 0.0 207.8
07:35 22.0 77.6 1022.1 1.1 SE 4.9 ESE 0.0 344.0
07:40 22.3 74.8 1022.1 0.5 ESE 4.2 SE 0.0 360.6
07:45 22.5 73.6 1022.0 0.8 N 4.6 NW 0.0 374.6
07:50 22.3 73.8 1022.0 3.2 N 6.4 NNW 0.0 387.6
07:55 22.3 73.2 1021.9 1.3 NNW 3.9 NW 0.0 399.2
08:00 22.5 72.5 1021.9 1.7 NW 4.9 NNW 0.0 419.0
08:05 22.9 70.3 1021.9 1.0 SW 3.9 SW 0.0 430.3
08:10 23.0 70.3 1021.9 3.8 WSW 6.4 WSW 0.0 460.1
08:15 23.4 69.2 1021.9 3.8 W 7.4 W 0.0 467.3
08:20 23.5 68.0 1021.9 3.7 W 7.1 W 0.0 269.9
08:25 23.1 69.5 1021.9 4.3 NNW 8.5 NNE 0.0 420.1
08:30 23.3 68.9 1021.9 3.7 NNE 7.4 NE 0.0 512.3
08:35 23.5 68.1 1021.9 1.9 ENE 6.4 NE 0.0 525.5
08:40 23.6 67.5 1021.9 2.6 SW 6.7 WSW 0.0 500.7
08:45 23.9 65.5 1021.9 4.5 SSW 10.9 WSW 0.0 544.9
08:50 24.0 66.3 1021.9 2.8 SW 9.5 SSW 0.0 555.0
08:55 24.0 66.2 1021.9 2.4 W 6.7 WNW 0.0 568.1
09:00 24.3 65.4 1021.9 3.9 WNW 9.2 W 0.0 574.6
09:05 24.4 64.5 1021.9 3.9 WNW 8.1 W 0.0 584.2
09:10 24.5 63.9 1021.9 4.9 WNW 9.2 NNW 0.0 593.8
09:15 24.7 63.9 1021.8 4.3 W 10.6 SW 0.0 606.3
09:20 24.9 62.0 1021.8 4.3 NW 9.9 NNW 0.0 618.1
09:25 24.8 63.1 1021.8 3.7 W 7.8 WSW 0.0 628.1
09:30 25.4 61.1 1021.8 4.7 W 9.9 W 0.0 637.0
09:35 25.7 59.2 1021.8 5.8 SW 12.0 SW 0.0 648.3
09:40 25.6 59.4 1021.8 4.7 SW 8.1 SSW 0.0 657.7
09:45 25.8 58.5 1021.7 1.5 SSW 4.6 SSE 0.0 668.6
09:50 25.7 58.0 1021.7 3.9 W 8.8 SW 0.0 676.8
09:55 25.8 57.4 1021.7 4.6 SSW 9.9 S 0.0 685.7
10:00 26.1 55.6 1021.7 4.9 SSW 9.5 SW 0.0 696.0
10:05 26.2 55.4 1021.7 6.2 SW 15.2 SW 0.0 703.7
10:10 26.7 54.1 1021.7 4.7 WSW 18.4 WSW 0.0 711.0
10:15 27.0 53.5 1021.7 8.1 SW 15.9 SSW 0.0 714.9
10:20 27.0 52.3 1021.7 8.5 SSW 16.6 SW 0.0 724.1
10:25 27.0 52.6 1021.7 3.8 SSW 10.2 SSW 0.0 730.1
10:30 27.4 51.9 1021.7 6.3 WSW 15.5 WNW 0.0 739.1
10:35 28.0 49.4 1021.5 4.9 SSW 11.6 SW 0.0 745.6
10:40 28.1 47.7 1021.5 8.8 SSW 20.5 SSW 0.0 751.5
10:45 28.2 47.1 1021.5 6.7 SSW 21.2 SSW 0.0 769.3
10:50 28.7 46.8 1021.5 11.9 SSW 26.1 SSW 0.0 759.3
10:55 28.6 47.6 1021.5 15.8 SSW 27.9 SSW 0.0 758.0
11:00 28.0 48.9 1021.5 12.7 SSW 24.7 S 0.0 764.9
11:05 28.0 49.2 1021.5 16.0 SSW 25.4 S 0.0 768.2
11:10 28.1 48.5 1021.5 12.2 SSW 21.5 SW 0.0 771.8
11:15 28.5 46.7 1021.5 12.0 SSW 20.8 WSW 0.0 774.4
11:20 28.7 46.3 1021.5 10.1 S 20.1 S 0.0 774.9
11:25 28.7 45.4 1021.5 13.5 SSW 27.5 SSW 0.0 779.9
11:30 28.6 45.2 1021.5 9.7 SSW 21.9 SSW 0.0 784.9
11:35 28.8 44.6 1021.4 15.2 S 27.9 SSW 0.0 788.4
11:40 28.5 44.8 1021.4 12.8 SSW 28.9 SSW 0.0 790.1
11:45 28.6 44.8 1021.4 12.4 SSW 25.1 S 0.0 789.1
11:50 28.6 44.1 1021.4 13.5 SSW 23.3 WSW 0.0 790.1
11:55 29.0 43.1 1021.4 8.2 S 19.4 SE 0.0 789.3
12:00 29.3 42.3 1021.4 15.2 SW 25.4 SW 0.0 793.5
12:05 28.8 43.2 1021.4 12.9 S 25.8 SSE 0.0 791.2
12:10 29.0 43.0 1021.4 11.9 S 26.8 SSW 0.0 793.3
12:15 29.2 42.5 1021.3 10.0 S 24.3 SSW 0.0 794.9
12:20 29.3 41.9 1021.3 13.5 SSW 25.4 SSW 0.0 793.5
12:25 29.0 43.1 1021.3 12.7 SSW 21.9 SSW 0.0 797.1
12:30 29.4 42.4 1021.3 13.0 SW 23.3 WSW 0.0 811.0
12:35 29.6 42.1 1021.3 13.3 S 29.3 SSW 0.0 610.6
12:40 28.7 44.1 1021.3 7.5 SSE 23.3 SSE 0.0 643.2
12:45 29.3 42.7 1021.2 9.3 S 21.2 S 0.0 688.3
12:50 29.3 43.1 1021.2 12.1 SSW 26.8 SW 0.0 705.3
12:55 29.1 43.6 1021.1 12.1 S 24.3 SSW 0.0 624.4
13:00 28.6 45.1 1021.1 15.7 S 27.2 SSW 0.0 748.1
13:05 28.4 46.9 1021.2 9.6 S 24.0 SSW 0.0 801.0
13:10 29.1 45.0 1021.2 11.4 S 22.2 SW 0.0 803.0
13:15 28.7 46.1 1020.9 7.7 S 22.6 SSW 0.0 279.4
13:20 28.3 47.3 1020.9 10.8 S 24.7 S 0.0 352.5
13:25 28.3 48.1 1020.9 9.3 S 19.8 S 0.0 823.0
13:30 29.2 46.4 1020.9 10.4 S 23.3 S 0.0 732.3
13:35 28.5 47.9 1020.9 11.8 SSW 24.7 SW 0.0 253.7
13:40 28.2 49.0 1020.9 10.9 SSW 24.3 S 0.0 318.2
13:45 27.7 50.2 1021.0 11.2 S 20.1 WSW 0.0 321.9
13:50 27.7 50.7 1021.0 9.7 S 23.3 S 0.0 215.8
13:55 27.4 52.3 1020.6 7.3 S 20.5 S 0.0 183.1
14:00 27.4 51.9 1020.6 8.5 SSW 20.5 S 0.0 243.5
14:05 27.5 51.8 1020.6 8.6 S 19.1 SSW 0.0 380.3
14:10 27.6 51.5 1020.6 10.3 S 21.2 S 0.0 705.2
14:15 28.2 50.8 1020.3 8.9 SSE 17.3 S 0.0 643.2
14:20 28.6 50.4 1020.3 9.3 S 22.2 SSW 0.0 502.2
14:25 28.3 50.5 1020.2 12.3 SSW 22.9 SW 0.0 395.5
14:30 28.3 50.5 1020.2 12.4 SSW 21.9 S 0.0 663.3
14:35 28.5 50.2 1020.4 8.3 S 20.1 SSW 0.0 597.9
14:40 28.6 50.6 1020.4 11.1 SSW 21.9 SSW 0.0 559.6
14:45 28.8 49.8 1020.2 12.3 S 26.5 S 0.0 581.8
14:50 28.5 50.5 1020.2 13.3 S 25.8 SSW 0.0 574.5
14:55 28.6 50.3 1020.1 7.3 S 18.0 SSW 0.0 521.1
15:00 28.7 49.3 1020.1 9.0 S 19.1 SSW 0.0 374.1
15:05 28.2 51.1 1019.9 10.6 S 19.1 S 0.0 184.3
15:10 27.9 52.3 1019.9 9.9 SSW 21.2 SSW 0.0 240.9
15:15 27.8 51.9 1020.0 11.4 SSW 22.2 S 0.0 205.9
15:20 27.6 52.1 1020.0 10.6 S 22.9 S 0.0 176.0
15:25 27.4 53.4 1020.0 9.0 S 26.8 SSE 0.0 200.5
15:30 27.3 53.6 1020.0 12.7 SSW 21.5 SSW 0.0 289.8
15:35 27.7 53.0 1019.9 12.0 SSW 26.8 SW 0.0 568.2
15:40 28.0 52.8 1019.9 18.1 SSW 31.4 SSW 0.0 524.9
15:45 27.3 53.6 1020.2 17.5 S 29.6 S 0.0 450.3
15:50 27.3 54.3 1020.2 11.2 S 22.6 SSE 0.0 371.1
15:55 27.4 54.5 1020.2 14.1 SSW 25.8 S 0.0 359.6
16:00 27.2 55.4 1020.2 12.9 SSW 25.4 SSW 0.0 345.3
16:05 27.3 54.9 1020.1 14.5 SSW 25.4 SSW 0.0 346.8
16:10 27.0 55.9 1020.1 13.1 S 24.3 SSW 0.0 311.8
16:15 26.9 56.3 1020.0 10.7 SSW 21.5 S 0.0 327.3
16:20 27.0 55.8 1020.0 14.1 SSW 24.3 SW 0.0 317.6
16:25 27.2 55.0 1020.0 9.8 SSW 23.6 SW 0.0 340.0
16:30 27.2 55.0 1020.0 12.7 SSW 22.6 S 0.0 143.4
16:35 26.5 56.9 1020.1 12.5 SSW 24.3 SSW 0.0 204.9
16:40 26.3 57.6 1020.1 15.0 SSW 26.1 S 0.0 264.2
16:45 25.9 58.9 1020.2 14.1 S 26.8 S 0.0 132.9
16:50 25.5 60.3 1020.2 12.8 S 25.4 SSW 0.0 157.1
16:55 25.4 60.9 1020.2 15.7 SSW 29.6 SSW 0.0 91.7
17:00 25.2 62.2 1020.2 10.9 SSW 20.5 S 0.0 79.3
17:05 25.1 62.3 1020.1 13.3 SSW 25.4 S 0.0 76.3
17:10 24.9 63.2 1020.1 10.7 S 20.8 S 0.0 69.6
17:15 24.9 63.8 1020.0 7.9 SSW 18.4 SW 0.0 68.5
17:20 24.8 63.7 1020.0 10.3 S 19.4 S 0.0 80.7
17:25 24.8 63.5 1020.0 8.6 S 18.7 SSW 0.0 91.0
17:30 24.9 63.4 1020.0 7.7 S 21.2 SSW 0.0 78.8
17:35 24.9 63.5 1019.9 8.3 S 19.8 S 0.0 79.3
17:40 24.9 63.7 1019.9 8.7 S 18.4 S 0.0 64.2
17:45 24.8 64.1 1020.1 7.5 S 20.5 SSE 0.0 57.1
17:50 24.7 63.8 1020.1 9.2 S 18.4 S 0.0 48.0
17:55 24.7 63.9 1020.0 7.8 S 17.6 S 0.0 37.5
18:00 24.6 63.8 1020.0 12.8 SSW 25.1 SW 0.0 31.5
18:05 24.5 64.2 1020.0 6.8 SSW 13.1 SE 0.0 24.4
18:10 24.3 65.2 1020.0 6.5 S 14.8 SSW 0.0 16.9
18:15 24.1 66.1 1020.0 3.1 S 8.1 SW 0.0 12.1
18:20 23.9 67.1 1020.0 3.5 S 8.1 SSE 0.0 6.3
18:25 23.7 68.1 1020.0 4.8 S 13.8 SSW 0.0 2.5
Màxima 29.6 88.5 1022.6 18.1 SSW 31.4 SSW 0.0 823.0
Mínima 19.2 41.9 1019.9
Total 0.0